Time;durP1;ratioP1;P1;durP2;ratioP2;P2;SDS_P1;SDS_P2;PMS_P1;PMS_P2;Temp;Humidity;BMP_temperature;BMP_pressure;BME280_temperature;BME280_humidity;BME280_pressure;Samples;Min_cycle;Max_cycle;Signal;HPM_P1;HPM_P2
2023/12/13 00:02:09;;;;;;;0.47;0.47;;;8.80;99.90;;;;;;5041191;28;20057;-69
2023/12/13 00:04:35;;;;;;;0.10;0.10;;;8.80;99.90;;;;;;5045094;28;20036;-69
2023/12/13 00:07:01;;;;;;;0.65;0.65;;;8.80;99.90;;;;;;5036732;28;20414;-69
2023/12/13 00:09:26;;;;;;;0.65;0.65;;;8.80;99.90;;;;;;5041164;28;20053;-69
2023/12/13 00:11:52;;;;;;;0.10;0.10;;;8.80;99.90;;;;;;5037093;28;20077;-69
2023/12/13 00:14:18;;;;;;;0.45;0.45;;;8.80;99.90;;;;;;5039876;28;20041;-69
2023/12/13 00:16:44;;;;;;;1.27;1.17;;;8.80;99.90;;;;;;5042817;28;20099;-69
2023/12/13 00:19:10;;;;;;;0.10;0.10;;;8.80;99.90;;;;;;5044677;28;20033;-69
2023/12/13 00:21:35;;;;;;;7.75;1.45;;;8.80;99.90;;;;;;5042810;28;20129;-69
2023/12/13 00:24:01;;;;;;;0.10;0.10;;;8.80;99.90;;;;;;5036631;28;20073;-69
2023/12/13 00:26:27;;;;;;;0.32;0.32;;;8.80;99.90;;;;;;5042944;28;20043;-69
2023/12/13 00:28:53;;;;;;;1.05;1.05;;;8.80;99.90;;;;;;5036628;28;20426;-69
2023/12/13 00:31:18;;;;;;;0.20;0.20;;;8.80;99.90;;;;;;5041001;28;20045;-69
2023/12/13 00:33:44;;;;;;;0.45;0.38;;;8.80;99.90;;;;;;5040256;28;20073;-69
2023/12/13 00:36:10;;;;;;;0.10;0.10;;;8.80;99.90;;;;;;5036116;28;20041;-69
2023/12/13 00:38:35;;;;;;;0.15;0.15;;;8.80;99.90;;;;;;5040778;28;20040;-69
2023/12/13 00:41:01;;;;;;;5.93;1.23;;;8.80;99.90;;;;;;5045247;28;20167;-69
2023/12/13 00:43:26;;;;;;;0.90;0.90;;;8.80;99.90;;;;;;5040052;28;20073;-69
2023/12/13 00:45:52;;;;;;;0.13;0.13;;;8.80;99.90;;;;;;5035516;28;20041;-69
2023/12/13 00:48:18;;;;;;;0.10;0.10;;;8.80;99.90;;;;;;5042576;28;20045;-69
2023/12/13 00:50:44;;;;;;;0.10;0.10;;;8.80;99.90;;;;;;5038839;28;20041;-69
2023/12/13 00:53:09;;;;;;;0.10;0.10;;;8.80;99.90;;;;;;5037945;28;20034;-69
2023/12/13 00:55:35;;;;;;;0.93;0.93;;;8.80;99.90;;;;;;5037617;28;20045;-69
2023/12/13 00:58:00;;;;;;;0.15;0.15;;;8.80;99.90;;;;;;5039245;28;20033;-69
2023/12/13 01:00:26;;;;;;;0.40;0.40;;;8.80;99.90;;;;;;5041393;28;20037;-69
2023/12/13 01:02:52;;;;;;;0.93;0.93;;;8.80;99.90;;;;;;5049240;28;20060;-69
2023/12/13 01:05:18;;;;;;;0.45;0.45;;;8.80;99.90;;;;;;5040426;28;20038;-69
2023/12/13 01:07:44;;;;;;;0.50;0.50;;;8.80;99.90;;;;;;5041495;28;20049;-69
2023/12/13 01:10:09;;;;;;;1.35;1.25;;;8.80;99.90;;;;;;5038288;28;20044;-69
2023/12/13 01:12:35;;;;;;;0.40;0.40;;;8.80;99.90;;;;;;5042081;28;20049;-69
2023/12/13 01:15:01;;;;;;;0.32;0.32;;;8.80;99.90;;;;;;5042033;28;20049;-69
2023/12/13 01:17:26;;;;;;;0.10;0.10;;;8.80;99.90;;;;;;5035265;28;20053;-69
2023/12/13 01:19:52;;;;;;;0.17;0.17;;;8.80;99.90;;;;;;5040644;28;20056;-69
2023/12/13 01:22:19;;;;;;;0.47;0.35;;;8.80;99.90;;;;;;5046512;28;20392;-69
2023/12/13 01:24:44;;;;;;;0.82;0.80;;;8.80;99.90;;;;;;5039892;28;20478;-69
2023/12/13 01:27:10;;;;;;;0.28;0.28;;;8.80;99.90;;;;;;5043700;28;20111;-69
2023/12/13 01:29:36;;;;;;;0.20;0.20;;;8.80;99.90;;;;;;5048460;28;20071;-69
2023/12/13 01:32:02;;;;;;;0.47;0.47;;;8.80;99.90;;;;;;5037714;28;20112;-69
2023/12/13 01:34:29;;;;;;;1.75;1.65;;;8.80;99.90;;;;;;5041821;28;20051;-68
2023/12/13 01:36:55;;;;;;;1.13;0.70;;;8.80;99.90;;;;;;5043943;28;20087;-69
2023/12/13 01:39:20;;;;;;;0.32;0.32;;;8.80;99.90;;;;;;5041631;28;20049;-69
2023/12/13 01:41:46;;;;;;;0.10;0.10;;;8.80;99.90;;;;;;5041978;28;20049;-69
2023/12/13 01:44:11;;;;;;;0.45;0.45;;;8.70;99.90;;;;;;5050452;28;20036;-69
2023/12/13 01:46:39;;;;;;;0.52;0.52;;;8.70;99.90;;;;;;5040970;28;20052;-69
2023/12/13 01:49:06;;;;;;;0.77;0.77;;;8.70;99.90;;;;;;5038100;28;20493;-69
2023/12/13 01:51:34;;;;;;;0.20;0.20;;;8.80;99.90;;;;;;5036418;28;20053;-69
2023/12/13 01:54:02;;;;;;;0.13;0.13;;;8.70;99.90;;;;;;5038991;28;20040;-69
2023/12/13 01:56:29;;;;;;;0.43;0.43;;;8.70;99.90;;;;;;5042458;28;20045;-69
2023/12/13 01:58:54;;;;;;;0.35;0.35;;;8.70;99.90;;;;;;5041449;28;20396;-69
2023/12/13 02:01:20;;;;;;;0.03;0.03;;;8.70;99.90;;;;;;5043222;28;20048;-69
2023/12/13 02:03:46;;;;;;;0.10;0.10;;;8.70;99.90;;;;;;5043841;28;20037;-69
2023/12/13 02:06:11;;;;;;;0.10;0.10;;;8.70;99.90;;;;;;5044656;28;20056;-69
2023/12/13 02:08:37;;;;;;;0.35;0.35;;;8.70;99.90;;;;;;5048281;28;20083;-69
2023/12/13 02:11:03;;;;;;;0.10;0.10;;;8.70;99.90;;;;;;5047739;28;20037;-69
2023/12/13 02:13:28;;;;;;;0.28;0.28;;;8.70;99.90;;;;;;5042325;28;20046;-69
2023/12/13 02:15:54;;;;;;;0.10;0.10;;;8.70;99.90;;;;;;5046664;28;20040;-69
2023/12/13 02:18:20;;;;;;;6.40;0.90;;;8.60;99.90;;;;;;5048854;28;20041;-69
2023/12/13 02:20:45;;;;;;;0.38;0.38;;;8.70;99.90;;;;;;5039606;28;20044;-69
2023/12/13 02:23:11;;;;;;;0.10;0.10;;;8.60;99.90;;;;;;5047226;28;20463;-69
2023/12/13 02:26:01;;;;;;;0.20;0.20;;;8.60;99.90;;;;;;5044700;28;20419;-69
2023/12/13 02:28:28;;;;;;;0.10;0.10;;;8.60;99.90;;;;;;5038931;28;20519;-69
2023/12/13 02:30:56;;;;;;;3.72;0.65;;;8.60;99.90;;;;;;5043581;28;20045;-69
2023/12/13 02:33:28;;;;;;;0.57;0.57;;;8.60;99.90;;;;;;5040921;28;20048;-69
2023/12/13 02:35:57;;;;;;;0.10;0.10;;;8.70;99.90;;;;;;5040527;28;20053;-69
2023/12/13 02:38:23;;;;;;;0.10;0.10;;;8.60;99.90;;;;;;5046430;28;20494;-68
2023/12/13 02:40:48;;;;;;;0.20;0.20;;;8.70;99.90;;;;;;5037193;28;20045;-69
2023/12/13 02:43:14;;;;;;;0.20;0.20;;;8.70;99.90;;;;;;5043967;28;20040;-69
2023/12/13 02:45:40;;;;;;;0.10;0.10;;;8.60;99.90;;;;;;5039439;28;20428;-69
2023/12/13 02:48:06;;;;;;;0.30;0.30;;;8.60;99.90;;;;;;5041762;28;20057;-69
2023/12/13 02:50:32;;;;;;;0.10;0.10;;;8.70;99.90;;;;;;5047174;28;20079;-69
2023/12/13 02:52:57;;;;;;;0.22;0.22;;;8.60;99.90;;;;;;5046305;28;20381;-69
2023/12/13 02:55:23;;;;;;;1.27;0.90;;;8.60;99.90;;;;;;5041119;28;20374;-69
2023/12/13 02:57:48;;;;;;;0.00;0.00;;;8.60;99.90;;;;;;5044181;28;20074;-69
2023/12/13 03:00:14;;;;;;;0.68;0.68;;;8.70;99.90;;;;;;5046479;28;20048;-69
2023/12/13 03:02:40;;;;;;;0.03;0.03;;;8.60;99.90;;;;;;5043651;28;20049;-69
2023/12/13 03:05:06;;;;;;;1.15;0.95;;;8.60;99.90;;;;;;5044889;28;20569;-69
2023/12/13 03:07:32;;;;;;;0.10;0.10;;;8.60;99.90;;;;;;5040875;28;20041;-69
2023/12/13 03:09:57;;;;;;;0.20;0.20;;;8.60;99.90;;;;;;5043960;28;20533;-69
2023/12/13 03:12:23;;;;;;;1.48;1.20;;;8.60;99.90;;;;;;5045725;28;20115;-68
2023/12/13 03:14:48;;;;;;;0.10;0.10;;;8.60;99.90;;;;;;5041954;28;20044;-69
2023/12/13 03:17:14;;;;;;;0.30;0.30;;;8.60;99.90;;;;;;5047642;28;20044;-69
2023/12/13 03:19:40;;;;;;;3.35;1.30;;;8.60;99.90;;;;;;5046560;28;20040;-69
2023/12/13 03:22:06;;;;;;;0.10;0.10;;;8.60;99.90;;;;;;5045870;28;20045;-69
2023/12/13 03:24:31;;;;;;;0.10;0.10;;;8.60;99.90;;;;;;5037035;28;20170;-68
2023/12/13 03:26:57;;;;;;;0.30;0.30;;;8.70;99.90;;;;;;5046458;28;20125;-69
2023/12/13 03:29:22;;;;;;;0.13;0.13;;;8.70;99.90;;;;;;5035328;28;20037;-69
2023/12/13 03:31:48;;;;;;;0.20;0.20;;;8.60;99.90;;;;;;5039101;28;20033;-69
2023/12/13 03:34:14;;;;;;;0.50;0.50;;;8.70;99.90;;;;;;5039351;28;20532;-69
2023/12/13 03:36:40;;;;;;;0.10;0.10;;;8.70;99.90;;;;;;5042249;28;20685;-69
2023/12/13 03:39:07;;;;;;;0.10;0.10;;;8.60;99.90;;;;;;5043859;28;20059;-69
2023/12/13 03:41:34;;;;;;;1.02;0.80;;;8.60;99.90;;;;;;5046941;28;20050;-69
2023/12/13 03:43:59;;;;;;;0.47;0.47;;;8.70;99.90;;;;;;5045403;28;20053;-68
2023/12/13 03:46:25;;;;;;;0.25;0.25;;;8.60;99.90;;;;;;5037357;28;20114;-69
2023/12/13 03:48:50;;;;;;;0.20;0.20;;;8.60;99.90;;;;;;5039393;28;20040;-69
2023/12/13 03:51:16;;;;;;;0.25;0.25;;;8.60;99.90;;;;;;5039881;28;20118;-69
2023/12/13 03:53:42;;;;;;;0.45;0.45;;;8.60;99.90;;;;;;5044383;28;20045;-69
2023/12/13 03:56:09;;;;;;;0.20;0.20;;;8.60;99.90;;;;;;5043231;28;20047;-69
2023/12/13 03:58:36;;;;;;;0.73;0.73;;;8.60;99.90;;;;;;5038961;28;20461;-69
2023/12/13 04:01:01;;;;;;;0.57;0.47;;;8.60;99.90;;;;;;5045919;28;20032;-69
2023/12/13 04:03:27;;;;;;;0.13;0.13;;;8.60;99.90;;;;;;5037650;28;20181;-69
2023/12/13 04:05:53;;;;;;;0.20;0.20;;;8.60;99.90;;;;;;5046761;28;20044;-69
2023/12/13 04:08:18;;;;;;;0.35;0.35;;;8.60;99.90;;;;;;5045281;28;20637;-69
2023/12/13 04:10:44;;;;;;;0.15;0.15;;;8.60;99.90;;;;;;5036440;28;20496;-69
2023/12/13 04:13:09;;;;;;;0.10;0.10;;;8.60;99.90;;;;;;5043890;28;20037;-69
2023/12/13 04:15:35;;;;;;;0.10;0.10;;;8.60;99.90;;;;;;5045581;28;20127;-69
2023/12/13 04:18:01;;;;;;;1.75;1.65;;;8.60;99.90;;;;;;5041045;28;20495;-69
2023/12/13 04:20:26;;;;;;;0.45;0.45;;;8.60;99.90;;;;;;5045549;28;20094;-69
2023/12/13 04:22:52;;;;;;;0.40;0.40;;;8.60;99.90;;;;;;5046465;28;20053;-68
2023/12/13 04:25:18;;;;;;;0.40;0.40;;;8.60;99.90;;;;;;5043600;28;20052;-69
2023/12/13 04:27:45;;;;;;;0.20;0.20;;;8.60;99.90;;;;;;5052308;28;20496;-68
2023/12/13 04:30:11;;;;;;;0.10;0.10;;;8.60;99.90;;;;;;5046547;28;20048;-69
2023/12/13 04:32:38;;;;;;;0.35;0.35;;;8.60;99.90;;;;;;5033206;28;20098;-69
2023/12/13 04:35:05;;;;;;;0.10;0.10;;;8.60;99.90;;;;;;5043642;28;20162;-69
2023/12/13 04:37:31;;;;;;;0.22;0.22;;;8.60;99.90;;;;;;5047782;28;20028;-69
2023/12/13 04:39:57;;;;;;;0.10;0.10;;;8.60;99.90;;;;;;5041702;28;20037;-69
2023/12/13 04:42:22;;;;;;;1.58;0.80;;;8.60;99.90;;;;;;5031945;28;20127;-68
2023/12/13 04:44:49;;;;;;;0.10;0.10;;;8.60;99.90;;;;;;5040684;28;20320;-68
2023/12/13 04:47:15;;;;;;;0.10;0.10;;;8.60;99.90;;;;;;5046462;28;20044;-69
2023/12/13 04:49:40;;;;;;;0.10;0.10;;;8.60;99.90;;;;;;5053102;28;20492;-68
2023/12/13 04:52:06;;;;;;;1.02;0.88;;;8.60;99.90;;;;;;5038576;28;20047;-69
2023/12/13 04:54:31;;;;;;;0.50;0.50;;;8.60;99.90;;;;;;5045862;28;20044;-68
2023/12/13 04:56:57;;;;;;;0.10;0.10;;;8.60;99.90;;;;;;5040673;28;20490;-69
2023/12/13 04:59:23;;;;;;;0.10;0.10;;;8.60;99.90;;;;;;5043154;28;20045;-69
2023/12/13 05:01:48;;;;;;;0.38;0.38;;;8.60;99.90;;;;;;5037031;28;20041;-69
2023/12/13 05:04:14;;;;;;;0.35;0.35;;;8.60;99.90;;;;;;5037538;28;20069;-68
2023/12/13 05:06:40;;;;;;;0.15;0.15;;;8.60;99.90;;;;;;5044684;28;20048;-68
2023/12/13 05:09:07;;;;;;;0.10;0.10;;;8.60;99.90;;;;;;5043680;28;20033;-69
2023/12/13 05:11:32;;;;;;;0.10;0.10;;;8.60;99.90;;;;;;5035420;28;20040;-69
2023/12/13 05:13:58;;;;;;;0.22;0.22;;;8.60;99.90;;;;;;5041625;28;20033;-69
2023/12/13 05:16:24;;;;;;;0.40;0.40;;;8.60;99.90;;;;;;5038264;28;20041;-68
2023/12/13 05:18:49;;;;;;;0.20;0.20;;;8.60;99.90;;;;;;5039681;28;20495;-68
2023/12/13 05:21:15;;;;;;;0.47;0.47;;;8.60;99.90;;;;;;5039292;28;20044;-69
2023/12/13 05:23:40;;;;;;;0.28;0.28;;;8.60;99.90;;;;;;5033293;28;20052;-68
2023/12/13 05:26:06;;;;;;;0.20;0.20;;;8.60;99.90;;;;;;5041054;28;20401;-68
2023/12/13 05:28:31;;;;;;;0.10;0.10;;;8.60;99.90;;;;;;5038541;28;20047;-69
2023/12/13 05:30:58;;;;;;;0.40;0.40;;;8.60;99.90;;;;;;5044513;28;20044;-68
2023/12/13 05:33:23;;;;;;;0.13;0.13;;;8.60;99.90;;;;;;5039536;28;20037;-69
2023/12/13 05:35:49;;;;;;;0.30;0.30;;;8.60;99.90;;;;;;5042179;28;20051;-68
2023/12/13 05:38:15;;;;;;;0.65;0.65;;;8.60;99.90;;;;;;5041698;28;20078;-69
2023/12/13 05:40:40;;;;;;;0.10;0.10;;;8.60;99.90;;;;;;5043398;28;20148;-68
2023/12/13 05:43:06;;;;;;;0.20;0.20;;;8.50;99.90;;;;;;5030938;28;20042;-69
2023/12/13 05:45:31;;;;;;;0.20;0.20;;;8.50;99.90;;;;;;5040963;28;20124;-68
2023/12/13 05:47:58;;;;;;;0.52;0.52;;;8.60;99.90;;;;;;5039312;28;20048;-68
2023/12/13 05:50:24;;;;;;;1.23;0.57;;;8.60;99.90;;;;;;5042023;28;20059;-68
2023/12/13 05:52:49;;;;;;;0.25;0.25;;;8.60;99.90;;;;;;5031809;28;21245;-69
2023/12/13 05:55:15;;;;;;;0.52;0.52;;;8.60;99.90;;;;;;5038633;28;20045;-68
2023/12/13 05:57:40;;;;;;;0.10;0.10;;;8.60;99.90;;;;;;5046241;28;20377;-69
2023/12/13 06:00:07;;;;;;;0.63;0.47;;;8.60;99.90;;;;;;5035719;28;20079;-68
2023/12/13 06:02:36;;;;;;;0.85;0.85;;;8.60;99.90;;;;;;5044972;28;20068;-69
2023/12/13 06:05:03;;;;;;;1.10;1.10;;;8.60;99.90;;;;;;5058467;28;20531;-68
2023/12/13 06:07:30;;;;;;;0.88;0.88;;;8.60;99.90;;;;;;5036669;28;20044;-68
2023/12/13 06:09:55;;;;;;;0.20;0.20;;;8.60;99.90;;;;;;5045201;28;20045;-68
2023/12/13 06:12:21;;;;;;;0.20;0.20;;;8.60;99.90;;;;;;5034987;28;20277;-68
2023/12/13 06:14:46;;;;;;;0.28;0.28;;;8.60;99.90;;;;;;5047594;28;20041;-68
2023/12/13 06:17:12;;;;;;;0.30;0.30;;;8.60;99.90;;;;;;5048176;28;20043;-68
2023/12/13 06:19:37;;;;;;;0.15;0.15;;;8.60;99.90;;;;;;5040986;28;20037;-69
2023/12/13 06:22:03;;;;;;;0.10;0.10;;;8.60;99.90;;;;;;5044108;28;20072;-68
2023/12/13 06:24:29;;;;;;;0.00;0.00;;;8.60;99.90;;;;;;5049849;28;20650;-69
2023/12/13 06:26:54;;;;;;;0.50;0.50;;;8.60;99.90;;;;;;5045121;28;20053;-68
2023/12/13 06:29:20;;;;;;;0.55;0.45;;;8.60;99.90;;;;;;5038536;28;20061;-68
2023/12/13 06:31:45;;;;;;;0.10;0.10;;;8.60;99.90;;;;;;5043087;28;20041;-68
2023/12/13 06:34:11;;;;;;;0.40;0.40;;;8.60;99.90;;;;;;5040708;28;20048;-68
2023/12/13 06:36:37;;;;;;;0.20;0.20;;;8.60;99.90;;;;;;5049743;28;20054;-69
2023/12/13 06:39:07;;;;;;;0.35;0.35;;;8.60;99.90;;;;;;5043873;28;20040;-69
2023/12/13 06:41:33;;;;;;;0.10;0.10;;;8.60;99.90;;;;;;5045269;28;20060;-68
2023/12/13 06:44:00;;;;;;;0.40;0.40;;;8.60;99.90;;;;;;5043582;28;20064;-68
2023/12/13 06:46:26;;;;;;;0.25;0.25;;;8.60;99.90;;;;;;5038378;28;20048;-68
2023/12/13 06:48:53;;;;;;;0.10;0.10;;;8.60;99.90;;;;;;5043846;28;20037;-68
2023/12/13 06:51:19;;;;;;;0.52;0.52;;;8.60;99.90;;;;;;5046458;28;20053;-69
2023/12/13 06:53:46;;;;;;;0.20;0.20;;;8.60;99.90;;;;;;5038487;28;20048;-69
2023/12/13 06:56:12;;;;;;;0.38;0.38;;;8.60;99.90;;;;;;5045952;28;20053;-69
2023/12/13 06:58:38;;;;;;;0.63;0.63;;;8.60;99.90;;;;;;5046768;28;20072;-69
2023/12/13 07:01:04;;;;;;;0.20;0.20;;;8.60;99.90;;;;;;5039467;28;20041;-69
2023/12/13 07:03:30;;;;;;;0.45;0.45;;;8.60;99.90;;;;;;5033320;28;20124;-69
2023/12/13 07:05:56;;;;;;;0.40;0.40;;;8.60;99.90;;;;;;5040393;28;20421;-68
2023/12/13 07:08:21;;;;;;;0.10;0.10;;;8.60;99.90;;;;;;5059853;28;20045;-71
2023/12/13 07:10:47;;;;;;;0.10;0.10;;;8.60;99.90;;;;;;5038625;28;20056;-71
2023/12/13 07:13:12;;;;;;;0.10;0.10;;;8.60;99.90;;;;;;5039034;28;20518;-71
2023/12/13 07:15:38;;;;;;;0.10;0.10;;;8.60;99.90;;;;;;5034743;28;20029;-68
2023/12/13 07:18:03;;;;;;;0.10;0.10;;;8.70;99.90;;;;;;5047828;28;20140;-69
2023/12/13 07:20:30;;;;;;;0.30;0.30;;;8.70;99.90;;;;;;5036580;28;20547;-69
2023/12/13 07:22:56;;;;;;;0.20;0.20;;;8.60;99.90;;;;;;5045340;28;20477;-69
2023/12/13 07:25:22;;;;;;;4.95;0.77;;;8.70;99.90;;;;;;5045681;28;20783;-69
2023/12/13 07:27:48;;;;;;;0.30;0.30;;;8.70;99.90;;;;;;5047484;28;20164;-69
2023/12/13 07:30:13;;;;;;;1.65;0.57;;;8.70;99.90;;;;;;5039230;28;20400;-69
2023/12/13 07:32:40;;;;;;;0.28;0.28;;;8.70;99.90;;;;;;5041403;28;20088;-69
2023/12/13 07:35:06;;;;;;;0.82;0.82;;;8.70;99.90;;;;;;5044476;28;20076;-69
2023/12/13 07:37:31;;;;;;;0.20;0.20;;;8.70;99.90;;;;;;5059435;28;20522;-68
2023/12/13 07:39:57;;;;;;;0.32;0.32;;;8.70;99.90;;;;;;5045161;28;20033;-69
2023/12/13 07:42:22;;;;;;;0.25;0.22;;;8.70;99.90;;;;;;5035182;28;20114;-69
2023/12/13 07:44:48;;;;;;;0.57;0.57;;;8.70;99.90;;;;;;5042192;28;20079;-70
2023/12/13 07:47:14;;;;;;;0.75;0.73;;;8.70;99.90;;;;;;5044433;28;20656;-70
2023/12/13 07:49:39;;;;;;;0.57;0.57;;;8.70;99.90;;;;;;5043059;28;20033;-70
2023/12/13 07:52:06;;;;;;;0.38;0.38;;;8.70;99.90;;;;;;5041662;28;20045;-70
2023/12/13 07:54:32;;;;;;;0.43;0.43;;;8.70;99.90;;;;;;5038435;28;20041;-70
2023/12/13 07:56:58;;;;;;;0.15;0.15;;;8.70;99.90;;;;;;5032125;28;20110;-70
2023/12/13 07:59:24;;;;;;;4.10;2.10;;;8.70;99.90;;;;;;5044125;28;20052;-70
2023/12/13 08:01:50;;;;;;;0.22;0.22;;;8.70;99.90;;;;;;5040907;28;20079;-70
2023/12/13 08:04:15;;;;;;;0.00;0.00;;;8.70;99.90;;;;;;5038870;28;20049;-70
2023/12/13 08:06:41;;;;;;;0.40;0.40;;;8.70;99.90;;;;;;5035592;28;20057;-70
2023/12/13 08:09:09;;;;;;;0.57;0.57;;;8.70;99.90;;;;;;5039246;28;20515;-70
2023/12/13 08:11:35;;;;;;;0.20;0.20;;;8.60;99.90;;;;;;5039721;28;20120;-70
2023/12/13 08:14:01;;;;;;;0.45;0.45;;;8.70;99.90;;;;;;5043363;28;20076;-70
2023/12/13 08:16:26;;;;;;;0.13;0.13;;;8.70;99.90;;;;;;5036804;28;20103;-70
2023/12/13 08:18:54;;;;;;;0.22;0.22;;;8.70;99.90;;;;;;5034830;28;20445;-70
2023/12/13 08:21:26;;;;;;;0.28;0.28;;;8.70;99.90;;;;;;5045432;28;20041;-70
2023/12/13 08:23:52;;;;;;;0.63;0.57;;;8.70;99.90;;;;;;5030637;28;20182;-70
2023/12/13 08:26:18;;;;;;;0.10;0.10;;;8.70;99.90;;;;;;5038366;28;20045;-70
2023/12/13 08:28:43;;;;;;;0.52;0.52;;;8.70;99.90;;;;;;5035314;28;20045;-70
2023/12/13 08:31:11;;;;;;;0.47;0.47;;;8.70;99.90;;;;;;5035607;28;20388;-70
2023/12/13 08:33:40;;;;;;;0.45;0.45;;;8.70;99.90;;;;;;5043389;28;20037;-70
2023/12/13 08:36:10;;;;;;;0.40;0.40;;;8.70;99.90;;;;;;5039240;28;20107;-70
2023/12/13 08:38:35;;;;;;;0.13;0.13;;;8.70;99.90;;;;;;5036375;28;20037;-70
2023/12/13 08:41:03;;;;;;;0.25;0.25;;;8.70;99.90;;;;;;5036276;28;20039;-68
2023/12/13 08:43:29;;;;;;;0.28;0.28;;;8.70;99.90;;;;;;5037431;28;20456;-68
2023/12/13 08:45:55;;;;;;;1.63;1.10;;;8.70;99.90;;;;;;5035085;28;20041;-68
2023/12/13 08:48:20;;;;;;;0.85;0.52;;;8.70;99.90;;;;;;5041185;28;20037;-69
2023/12/13 08:50:46;;;;;;;0.50;0.50;;;8.70;99.90;;;;;;5039355;28;20090;-69
2023/12/13 08:53:12;;;;;;;0.15;0.15;;;8.80;99.90;;;;;;5040662;28;20041;-69
2023/12/13 08:55:38;;;;;;;0.30;0.30;;;8.80;99.90;;;;;;5041172;28;20447;-69
2023/12/13 08:58:04;;;;;;;0.13;0.13;;;8.80;99.90;;;;;;5040068;28;20037;-69
2023/12/13 09:00:29;;;;;;;0.00;0.00;;;8.70;99.90;;;;;;5043007;28;20037;-69
2023/12/13 09:02:55;;;;;;;0.10;0.10;;;8.70;99.90;;;;;;5055904;28;20552;-69
2023/12/13 09:05:21;;;;;;;1.25;1.05;;;8.80;99.90;;;;;;5035849;28;20564;-69
2023/12/13 09:07:46;;;;;;;0.55;0.55;;;8.80;99.90;;;;;;5044153;28;20116;-69
2023/12/13 09:10:12;;;;;;;0.10;0.10;;;8.80;99.90;;;;;;5048408;28;20086;-69
2023/12/13 09:12:38;;;;;;;0.52;0.52;;;8.80;99.90;;;;;;5042028;28;20123;-69
2023/12/13 09:15:06;;;;;;;0.10;0.10;;;8.80;99.90;;;;;;5040962;28;20492;-69
2023/12/13 09:17:35;;;;;;;0.20;0.20;;;8.80;99.90;;;;;;5042491;28;20095;-68
2023/12/13 09:20:01;;;;;;;0.52;0.52;;;8.90;99.90;;;;;;5044116;28;20051;-70
2023/12/13 09:22:26;;;;;;;1.25;0.68;;;8.90;99.90;;;;;;5042428;28;20044;-70
2023/12/13 09:24:52;;;;;;;0.10;0.10;;;8.90;99.90;;;;;;5046260;28;20044;-71
2023/12/13 09:27:17;;;;;;;0.40;0.40;;;8.90;99.90;;;;;;5039406;28;20049;-70
2023/12/13 09:29:43;;;;;;;0.32;0.32;;;8.90;99.90;;;;;;5036920;28;20049;-70
2023/12/13 09:32:09;;;;;;;0.70;0.70;;;8.90;99.90;;;;;;5043430;28;20404;-70
2023/12/13 09:34:35;;;;;;;1.23;1.02;;;8.90;99.90;;;;;;5056598;28;20441;-70
2023/12/13 09:37:00;;;;;;;0.40;0.40;;;8.90;99.90;;;;;;5041651;28;20056;-69
2023/12/13 09:39:26;;;;;;;2.63;1.35;;;9.00;99.90;;;;;;5037485;28;20040;-69
2023/12/13 09:42:00;;;;;;;0.40;0.40;;;8.90;99.90;;;;;;5040398;28;20095;-69
2023/12/13 09:44:26;;;;;;;0.63;0.63;;;9.00;99.90;;;;;;5043998;28;20041;-69
2023/12/13 09:46:58;;;;;;;0.20;0.20;;;9.00;99.90;;;;;;5039190;28;20128;-69
2023/12/13 09:49:24;;;;;;;0.10;0.10;;;9.00;99.90;;;;;;5047120;28;20060;-69
2023/12/13 09:51:50;;;;;;;0.50;0.50;;;9.00;99.90;;;;;;5046057;28;20056;-69
2023/12/13 09:54:16;;;;;;;0.38;0.38;;;9.00;99.90;;;;;;5040714;28;20499;-69
2023/12/13 09:56:42;;;;;;;0.20;0.20;;;9.00;99.90;;;;;;5035101;28;20049;-69
2023/12/13 09:59:08;;;;;;;1.55;1.20;;;9.00;99.90;;;;;;5045915;28;20065;-69
2023/12/13 10:01:33;;;;;;;0.10;0.10;;;9.10;99.90;;;;;;5045542;28;21295;-69
2023/12/13 10:04:00;;;;;;;0.30;0.30;;;9.10;99.90;;;;;;5045999;28;20041;-68
2023/12/13 10:06:26;;;;;;;0.43;0.43;;;9.10;99.90;;;;;;5036046;28;20072;-70
2023/12/13 10:08:57;;;;;;;0.80;0.73;;;9.10;99.90;;;;;;5044337;28;20044;-70
2023/12/13 10:11:23;;;;;;;0.10;0.10;;;9.10;99.90;;;;;;5042639;28;20080;-70
2023/12/13 10:13:49;;;;;;;3.65;2.55;;;9.10;99.90;;;;;;5047652;28;20049;-70
2023/12/13 10:16:15;;;;;;;1.95;1.00;;;9.20;99.90;;;;;;5036451;28;20045;-70
2023/12/13 10:18:41;;;;;;;0.20;0.20;;;9.20;99.90;;;;;;5042676;28;20037;-70
2023/12/13 10:21:10;;;;;;;0.30;0.30;;;9.20;99.90;;;;;;5042106;28;20045;-70
2023/12/13 10:23:36;;;;;;;0.68;0.68;;;9.20;99.90;;;;;;5045229;28;20496;-70
2023/12/13 10:26:06;;;;;;;0.10;0.10;;;9.30;99.90;;;;;;5047549;28;20041;-70
2023/12/13 10:28:35;;;;;;;0.20;0.20;;;9.30;99.90;;;;;;5044190;28;20044;-70
2023/12/13 10:31:02;;;;;;;0.43;0.43;;;9.30;99.90;;;;;;5035262;28;20120;-71
2023/12/13 10:33:27;;;;;;;1.05;1.00;;;9.30;99.90;;;;;;5039374;28;20064;-70
2023/12/13 10:35:56;;;;;;;0.10;0.10;;;9.30;99.90;;;;;;5046261;28;20045;-70
2023/12/13 10:38:25;;;;;;;0.70;0.70;;;9.40;99.90;;;;;;5040611;28;20421;-70
2023/12/13 10:40:51;;;;;;;0.77;0.77;;;9.40;99.90;;;;;;5046104;28;20548;-70
2023/12/13 10:43:19;;;;;;;0.57;0.57;;;9.40;99.90;;;;;;5038409;28;20116;-70
2023/12/13 10:45:50;;;;;;;0.80;0.80;;;9.40;99.90;;;;;;5046161;28;20099;-70
2023/12/13 10:48:17;;;;;;;5.63;1.65;;;9.40;99.90;;;;;;5038463;28;20032;-70
2023/12/13 10:50:48;;;;;;;1.30;1.13;;;9.40;99.90;;;;;;5044797;28;20134;-70
2023/12/13 10:53:16;;;;;;;0.38;0.38;;;9.40;99.90;;;;;;5039606;28;20057;-70
2023/12/13 10:55:46;;;;;;;0.80;0.80;;;9.40;99.90;;;;;;5033638;28;20053;-70
2023/12/13 10:58:12;;;;;;;0.82;0.82;;;9.40;99.90;;;;;;5041264;28;20396;-68
2023/12/13 11:00:39;;;;;;;0.40;0.40;;;9.40;99.90;;;;;;5044463;28;20056;-68
2023/12/13 11:03:26;;;;;;;5.68;0.80;;;9.50;99.90;;;;;;5034877;28;20053;-68
2023/12/13 11:05:54;;;;;;;0.10;0.10;;;9.40;99.90;;;;;;5042212;28;20504;-68
2023/12/13 11:08:20;;;;;;;1.55;0.80;;;9.40;99.90;;;;;;5037528;28;20041;-68
2023/12/13 11:11:00;;;;;;;1.75;1.20;;;9.50;99.90;;;;;;5048650;28;20045;-68
2023/12/13 11:13:25;;;;;;;0.30;0.30;;;9.50;99.90;;;;;;5038538;28;20824;-66
2023/12/13 11:15:51;;;;;;;0.10;0.10;;;9.50;99.90;;;;;;5046477;28;20064;-66
2023/12/13 11:18:17;;;;;;;2.90;2.17;;;9.50;99.90;;;;;;5045437;28;20059;-66
2023/12/13 11:20:54;;;;;;;3.15;1.15;;;9.50;99.90;;;;;;5043571;28;20117;-65
2023/12/13 11:23:26;;;;;;;0.88;0.88;;;9.50;99.90;;;;;;5040374;28;20112;-67
2023/12/13 11:25:54;;;;;;;0.17;0.17;;;9.50;99.90;;;;;;5043254;28;20041;-66
2023/12/13 11:28:24;;;;;;;0.38;0.38;;;9.60;99.90;;;;;;5042234;28;20441;-66
2023/12/13 11:30:50;;;;;;;0.30;0.30;;;9.60;99.90;;;;;;5044416;28;20098;-67
2023/12/13 11:33:17;;;;;;;0.10;0.10;;;9.60;99.90;;;;;;5046423;28;20045;-66
2023/12/13 11:35:45;;;;;;;2.80;1.45;;;9.60;99.90;;;;;;5050638;28;20381;-68
2023/12/13 11:38:12;;;;;;;0.35;0.35;;;9.60;99.90;;;;;;5038729;28;20400;-68
2023/12/13 11:40:40;;;;;;;0.20;0.20;;;9.60;99.90;;;;;;5046564;28;20048;-67
2023/12/13 11:43:06;;;;;;;0.28;0.28;;;9.60;99.90;;;;;;5043637;28;20052;-68
2023/12/13 11:45:31;;;;;;;0.25;0.25;;;9.70;99.90;;;;;;5038395;28;20040;-67
2023/12/13 11:48:00;;;;;;;2.33;1.60;;;9.60;99.90;;;;;;5041826;28;20140;-67
2023/12/13 11:50:26;;;;;;;0.55;0.47;;;9.60;99.90;;;;;;5044700;28;20037;-68
2023/12/13 11:52:52;;;;;;;0.20;0.20;;;9.70;99.90;;;;;;5038698;28;20404;-67
2023/12/13 11:55:20;;;;;;;0.22;0.22;;;9.70;99.90;;;;;;5045171;28;20711;-68
2023/12/13 11:57:46;;;;;;;0.05;0.05;;;9.70;99.90;;;;;;5040934;28;20048;-67
2023/12/13 12:00:12;;;;;;;0.55;0.55;;;9.70;99.90;;;;;;5041872;28;20435;-68
2023/12/13 12:02:38;;;;;;;1.55;1.25;;;9.70;99.90;;;;;;5042113;28;20053;-68
2023/12/13 12:05:06;;;;;;;0.32;0.32;;;9.70;99.90;;;;;;5047606;28;20056;-67
2023/12/13 12:07:32;;;;;;;0.65;0.65;;;9.80;99.90;;;;;;5038074;28;20393;-67
2023/12/13 12:09:59;;;;;;;0.35;0.35;;;9.80;99.90;;;;;;5039299;28;20120;-67
2023/12/13 12:12:25;;;;;;;0.30;0.30;;;9.80;99.90;;;;;;5043683;28;20064;-68
2023/12/13 12:14:51;;;;;;;1.27;0.85;;;9.80;99.90;;;;;;5042026;28;20134;-68
2023/12/13 12:17:19;;;;;;;0.90;0.88;;;9.80;99.90;;;;;;5041849;28;20094;-68
2023/12/13 12:19:45;;;;;;;1.65;1.55;;;9.80;99.90;;;;;;5042363;28;20135;-67
2023/12/13 12:22:12;;;;;;;0.90;0.70;;;9.80;99.90;;;;;;5040195;28;20183;-67
2023/12/13 12:24:37;;;;;;;0.43;0.43;;;9.80;99.90;;;;;;5040187;28;20041;-68
2023/12/13 12:27:08;;;;;;;0.65;0.65;;;9.70;99.90;;;;;;5040770;28;20142;-69
2023/12/13 12:29:33;;;;;;;0.75;0.60;;;9.80;99.90;;;;;;5043272;28;20671;-68
2023/12/13 12:31:59;;;;;;;0.10;0.10;;;9.80;99.90;;;;;;5054781;28;20049;-68
2023/12/13 12:34:25;;;;;;;2.67;1.90;;;9.70;99.90;;;;;;5037470;28;20484;-68
2023/12/13 12:36:50;;;;;;;0.52;0.52;;;9.70;99.90;;;;;;5038319;28;20045;-68
2023/12/13 12:39:16;;;;;;;0.10;0.10;;;9.70;99.90;;;;;;5038544;28;20033;-68
2023/12/13 12:41:42;;;;;;;0.20;0.20;;;9.70;99.90;;;;;;5038591;28;20123;-68
2023/12/13 12:44:08;;;;;;;0.40;0.40;;;9.70;99.90;;;;;;5044157;28;20128;-69
2023/12/13 12:46:33;;;;;;;0.10;0.10;;;9.70;99.90;;;;;;5035570;28;20138;-69
2023/12/13 12:48:59;;;;;;;0.25;0.25;;;9.80;99.90;;;;;;5039483;28;20052;-70
2023/12/13 12:51:25;;;;;;;0.43;0.43;;;9.70;99.90;;;;;;5039895;28;20534;-69
2023/12/13 12:53:50;;;;;;;0.52;0.50;;;9.80;99.90;;;;;;5037845;28;20045;-71